(°C)
-7°
-8°
-9°
-10°
-10°
-9°
-8°
(°C)
-11°
-12°
-14°
-14°
-14°
-14°
-13°
S
S
S
SSE
SSE
S
S
(km/h)
4-17
4-17
4-18
5-19
6-18
8-19
10-23
(mm)
0
0
0
0
0
0
0
(%)
0
0
0
0
0
0
0

Élévation du soleil

/ -22.1°
sun-icon
UV 0
07:53
15:53
Gibbeuse décroissante (209°)
18:22
09:34

METAR pour 55.61°N 49.28°E (UWKD)

Heure Conditions Température/
Point de rosée
Vent Visibilité Météo Nuages Pression Changement Brut
MVFR -7°C / -9°C 170º 6kt >10km - Overcast 1000ft 1015 No Significant change. Runway 29: Dry snow, 11-25% contamination with 3mm, friction coefficient 0.42. UWKD 200200Z 17003MPS 9999 OVC010 M07/M09 Q1015 R29/420342 NOSIG RMK QFE750/1000
MVFR -7°C / °C 190º 8kt >10km - Overcast 1100ft 1015 No Significant change. Runway 29: Dry snow, 11-25% contamination with 3mm, friction coefficient 0.42. UWKD 200130Z 19004MPS 9999 OVC011 M07/M10 Q1015 R29/420342 NOSIG RMK QFE750/1000
MVFR -7°C / °C 220º 6kt >10km - Overcast 1200ft 1015 No Significant change. Runway 29: Dry snow, 11-25% contamination with 3mm, friction coefficient 0.42. UWKD 200100Z 22003MPS 9999 OVC012 M07/M10 Q1015 R29/420342 NOSIG RMK QFE750/1000
MVFR -8°C / °C 250º 6kt >10km - Overcast 1100ft 1015 No Significant change. Runway 29: Dry snow, 11-25% contamination with 3mm, friction coefficient 0.42. UWKD 200030Z 25003MPS 9999 OVC011 M08/M10 Q1015 R29/420342 NOSIG RMK QFE750/1000
MVFR -8°C / °C 250º 8kt >10km - Overcast 1300ft 1015 No Significant change. Runway 29: Dry snow, 11-25% contamination with 3mm, friction coefficient 0.42. UWKD 200000Z 25004MPS 9999 OVC013 M08/M10 Q1015 R29/420342 NOSIG RMK QFE750/1000
MVFR -8°C / °C 240º variable 200º to 260º 10kt >10km - Overcast 1300ft 1015 No Significant change. Runway 29: Dry snow, 11-25% contamination with 3mm, friction coefficient 0.42. UWKD 192330Z 24005MPS 200V260 9999 OVC013 M08/M11 Q1015 R29/420342 NOSIG RMK QFE750/1000
MVFR -8°C / °C 240º variable 190º to 270º 6kt >10km - Overcast 1400ft 1015 No Significant change. Runway 29: Dry snow, 11-25% contamination with 3mm, friction coefficient 0.42. UWKD 192300Z 24003MPS 190V270 9999 OVC014 M08/M10 Q1015 R29/420342 NOSIG RMK QFE750/1000
MVFR -8°C / °C 250º 4kt >10km - Overcast 1500ft 1015 No Significant change. Runway 29: Dry snow, 11-25% contamination with 3mm, friction coefficient 0.42. UWKD 192230Z 25002MPS 9999 OVC015 M08/M10 Q1015 R29/420342 NOSIG RMK QFE750/1000
MVFR -8°C / °C 270º 8kt >10km - Overcast 1500ft 1015 No Significant change. Runway 29: Dry snow, 11-25% contamination with 3mm, friction coefficient 0.42. UWKD 192200Z 27004MPS 9999 OVC015 M08/M10 Q1015 R29/420342 NOSIG RMK QFE750/1000
MVFR -8°C / °C 260º 8kt >10km - Overcast 1500ft 1014 No Significant change. Runway 29: Dry snow, 11-25% contamination with 3mm, friction coefficient 0.42. UWKD 192130Z 26004MPS 9999 OVC015 M08/M10 Q1014 R29/420342 NOSIG RMK QFE750/1000
MVFR -8°C / -9°C 270º 8kt >10km - Overcast 1600ft 1014 No Significant change. Runway 29: Dry snow, 11-25% contamination with 3mm, friction coefficient 0.42. UWKD 192100Z 27004MPS 9999 OVC016 M08/M09 Q1014 R29/420342 NOSIG RMK QFE750/1000
MVFR -8°C / -9°C 280º 8kt >10km - Overcast 2100ft 1014 No Significant change. Runway 29: Dry snow, 11-25% contamination with 3mm, friction coefficient 0.42. UWKD 192030Z 28004MPS 9999 OVC021 M08/M09 Q1014 R29/420342 NOSIG RMK QFE749/0999
MVFR -8°C / °C 270º 4kt >10km - Overcast 2300ft 1014 No Significant change. Runway 29: Dry snow, 11-25% contamination with 3mm, friction coefficient 0.42. UWKD 192000Z 27002MPS 9999 OVC023 M08/M10 Q1014 R29/420342 NOSIG RMK QFE749/0999
MVFR -9°C / °C 280º 6kt >10km - Overcast 2800ft 1014 No Significant change. Runway 29: Dry snow, 11-25% contamination with 3mm, friction coefficient 0.42. UWKD 191930Z 28003MPS 9999 OVC028 M09/M11 Q1014 R29/420342 NOSIG RMK QFE749/0999
VFR -8°C / -9°C 290º 8kt >10km - Clouds and Visibility OK 1014 No Significant change. Runway 29: Dry snow, 51-100% contamination with 3mm, friction coefficient 0.35. UWKD 191900Z 29004MPS CAVOK M08/M09 Q1014 R29/490335 NOSIG RMK QFE749/0999
VFR -7°C / -8°C 290º 6kt >10km - Broken Clouds 4200ft 1013 No Significant change. Runway 29: Dry snow, 51-100% contamination with 3mm, friction coefficient 0.35. UWKD 191830Z 29003MPS 9999 BKN042 M07/M08 Q1013 R29/490335 NOSIG RMK QFE749/0999
IFR -6°C / -8°C 300º 6kt 2000m Snow 3.00mm precipitation Vertical Visibility of 0ft. 1013 No Significant change. Runway 29: Dry snow, 51-100% contamination with 3mm, friction coefficient 0.31. UWKD 191800Z 30003MPS 2000 SN BKN021 M06/M08 Q1013 R29/490331 NOSIG RMK QFE749/0998
LIFR -6°C / -7°C 300º 8kt 1200m. Runway 29: Visual range is 1900m. Snow 3.00mm precipitation Vertical Visibility of 0ft. 1013 No Significant change. Runway 29: Dry snow, 51-100% contamination with 3mm, friction coefficient 0.31. UWKD 191730Z 30004MPS 1200 1100SE R29/1900N SN BKN012 M06/M07 Q1013 R29/490331 NOSIG RMK QFE749/0998
IFR -6°C / -7°C 300º 8kt 2400m Light Snow 1.00mm precipitation Vertical Visibility of 0ft. 1013 No Significant change. Runway 29: Dry snow, 51-100% contamination with 3mm, friction coefficient 0.31. UWKD 191700Z 30004MPS 2400 -SN BKN005 M06/M07 Q1013 R29/490331 NOSIG RMK QFE748/0998
LIFR -6°C / -7°C 300º 8kt 1500m. Runway 29: Visual range is 2000m and decreasing. Snow 3.00mm precipitation Vertical Visibility of 0ft. 1012 No Significant change. Runway 29: Dry snow, 51-100% contamination with 3mm, friction coefficient 0.31. UWKD 191630Z 30004MPS 1500 1300SW R29/P2000D SN BKN023 M06/M07 Q1012 R29/490331 NOSIG RMK QFE748/0998
IFR -5°C / -7°C 290º 8kt 1800m Snow 3.00mm precipitation Vertical Visibility of 0ft. 1012 No Significant change. Runway 29: Dry snow, 51-100% contamination with 1mm, friction coefficient 0.33. UWKD 191600Z 29004MPS 1800 1300W SN BKN016 M05/M07 Q1012 R29/490133 NOSIG RMK QFE748/0998
IFR -5°C / -7°C 290º 8kt 1900m Snow 3.00mm precipitation Vertical Visibility of 0ft. 1012 No Significant change. Runway 29: Dry snow, 51-100% contamination with 1mm, friction coefficient 0.33. UWKD 191530Z 29004MPS 1900 SN BKN016 M05/M07 Q1012 R29/490133 NOSIG RMK QFE748/0997
IFR -5°C / -6°C 310º 6kt 2100m Light Snow 1.00mm precipitation Vertical Visibility of 0ft. 1012 No Significant change. Runway 29: Dry snow, 51-100% contamination with 1mm, friction coefficient 0.33. UWKD 191500Z 31003MPS 2100 -SN BKN020 M05/M06 Q1012 R29/490133 NOSIG RMK QFE748/0997
IFR -5°C / -6°C 300º 8kt 2000m. Runway 29: Visual range is 2000m. Snow 3.00mm precipitation Vertical Visibility of 0ft. 1012 No Significant change. Runway 29: Dry snow, 51-100% contamination with 1mm, friction coefficient 0.33. UWKD 191430Z 30004MPS 2000 R29/P2000N SN BKN022 M05/M06 Q1012 R29/490133 NOSIG RMK QFE748/0997

MVFR

-7°C / -9°C

[Plus]
Vent 170º 6kt
Visibilité >10km
Météo -
Nuages Overcast 1000ft
Pression 1015
Changement No Significant change. Runway 29: Dry snow, 11-25% contamination with 3mm, friction coefficient 0.42.
Brut UWKD 200200Z 17003MPS 9999 OVC010 M07/M09 Q1015 R29/420342 NOSIG RMK QFE750/1000

MVFR

-7°C / °C

[Plus]
Vent 190º 8kt
Visibilité >10km
Météo -
Nuages Overcast 1100ft
Pression 1015
Changement No Significant change. Runway 29: Dry snow, 11-25% contamination with 3mm, friction coefficient 0.42.
Brut UWKD 200130Z 19004MPS 9999 OVC011 M07/M10 Q1015 R29/420342 NOSIG RMK QFE750/1000

MVFR

-7°C / °C

[Plus]
Vent 220º 6kt
Visibilité >10km
Météo -
Nuages Overcast 1200ft
Pression 1015
Changement No Significant change. Runway 29: Dry snow, 11-25% contamination with 3mm, friction coefficient 0.42.
Brut UWKD 200100Z 22003MPS 9999 OVC012 M07/M10 Q1015 R29/420342 NOSIG RMK QFE750/1000

MVFR

-8°C / °C

[Plus]
Vent 250º 6kt
Visibilité >10km
Météo -
Nuages Overcast 1100ft
Pression 1015
Changement No Significant change. Runway 29: Dry snow, 11-25% contamination with 3mm, friction coefficient 0.42.
Brut UWKD 200030Z 25003MPS 9999 OVC011 M08/M10 Q1015 R29/420342 NOSIG RMK QFE750/1000

MVFR

-8°C / °C

[Plus]
Vent 250º 8kt
Visibilité >10km
Météo -
Nuages Overcast 1300ft
Pression 1015
Changement No Significant change. Runway 29: Dry snow, 11-25% contamination with 3mm, friction coefficient 0.42.
Brut UWKD 200000Z 25004MPS 9999 OVC013 M08/M10 Q1015 R29/420342 NOSIG RMK QFE750/1000

MVFR

-8°C / °C

[Plus]
Vent 240º variable 200º to 260º 10kt
Visibilité >10km
Météo -
Nuages Overcast 1300ft
Pression 1015
Changement No Significant change. Runway 29: Dry snow, 11-25% contamination with 3mm, friction coefficient 0.42.
Brut UWKD 192330Z 24005MPS 200V260 9999 OVC013 M08/M11 Q1015 R29/420342 NOSIG RMK QFE750/1000

MVFR

-8°C / °C

[Plus]
Vent 240º variable 190º to 270º 6kt
Visibilité >10km
Météo -
Nuages Overcast 1400ft
Pression 1015
Changement No Significant change. Runway 29: Dry snow, 11-25% contamination with 3mm, friction coefficient 0.42.
Brut UWKD 192300Z 24003MPS 190V270 9999 OVC014 M08/M10 Q1015 R29/420342 NOSIG RMK QFE750/1000

MVFR

-8°C / °C

[Plus]
Vent 250º 4kt
Visibilité >10km
Météo -
Nuages Overcast 1500ft
Pression 1015
Changement No Significant change. Runway 29: Dry snow, 11-25% contamination with 3mm, friction coefficient 0.42.
Brut UWKD 192230Z 25002MPS 9999 OVC015 M08/M10 Q1015 R29/420342 NOSIG RMK QFE750/1000

MVFR

-8°C / °C

[Plus]
Vent 270º 8kt
Visibilité >10km
Météo -
Nuages Overcast 1500ft
Pression 1015
Changement No Significant change. Runway 29: Dry snow, 11-25% contamination with 3mm, friction coefficient 0.42.
Brut UWKD 192200Z 27004MPS 9999 OVC015 M08/M10 Q1015 R29/420342 NOSIG RMK QFE750/1000

MVFR

-8°C / °C

[Plus]
Vent 260º 8kt
Visibilité >10km
Météo -
Nuages Overcast 1500ft
Pression 1014
Changement No Significant change. Runway 29: Dry snow, 11-25% contamination with 3mm, friction coefficient 0.42.
Brut UWKD 192130Z 26004MPS 9999 OVC015 M08/M10 Q1014 R29/420342 NOSIG RMK QFE750/1000

MVFR

-8°C / -9°C

[Plus]
Vent 270º 8kt
Visibilité >10km
Météo -
Nuages Overcast 1600ft
Pression 1014
Changement No Significant change. Runway 29: Dry snow, 11-25% contamination with 3mm, friction coefficient 0.42.
Brut UWKD 192100Z 27004MPS 9999 OVC016 M08/M09 Q1014 R29/420342 NOSIG RMK QFE750/1000

MVFR

-8°C / -9°C

[Plus]
Vent 280º 8kt
Visibilité >10km
Météo -
Nuages Overcast 2100ft
Pression 1014
Changement No Significant change. Runway 29: Dry snow, 11-25% contamination with 3mm, friction coefficient 0.42.
Brut UWKD 192030Z 28004MPS 9999 OVC021 M08/M09 Q1014 R29/420342 NOSIG RMK QFE749/0999

MVFR

-8°C / °C

[Plus]
Vent 270º 4kt
Visibilité >10km
Météo -
Nuages Overcast 2300ft
Pression 1014
Changement No Significant change. Runway 29: Dry snow, 11-25% contamination with 3mm, friction coefficient 0.42.
Brut UWKD 192000Z 27002MPS 9999 OVC023 M08/M10 Q1014 R29/420342 NOSIG RMK QFE749/0999

MVFR

-9°C / °C

[Plus]
Vent 280º 6kt
Visibilité >10km
Météo -
Nuages Overcast 2800ft
Pression 1014
Changement No Significant change. Runway 29: Dry snow, 11-25% contamination with 3mm, friction coefficient 0.42.
Brut UWKD 191930Z 28003MPS 9999 OVC028 M09/M11 Q1014 R29/420342 NOSIG RMK QFE749/0999

VFR

-8°C / -9°C

[Plus]
Vent 290º 8kt
Visibilité >10km
Météo -
Nuages Clouds and Visibility OK
Pression 1014
Changement No Significant change. Runway 29: Dry snow, 51-100% contamination with 3mm, friction coefficient 0.35.
Brut UWKD 191900Z 29004MPS CAVOK M08/M09 Q1014 R29/490335 NOSIG RMK QFE749/0999

VFR

-7°C / -8°C

[Plus]
Vent 290º 6kt
Visibilité >10km
Météo -
Nuages Broken Clouds 4200ft
Pression 1013
Changement No Significant change. Runway 29: Dry snow, 51-100% contamination with 3mm, friction coefficient 0.35.
Brut UWKD 191830Z 29003MPS 9999 BKN042 M07/M08 Q1013 R29/490335 NOSIG RMK QFE749/0999

IFR

-6°C / -8°C

[Plus]
Vent 300º 6kt
Visibilité 2000m
Météo Snow 3.00mm precipitation
Nuages Vertical Visibility of 0ft.
Pression 1013
Changement No Significant change. Runway 29: Dry snow, 51-100% contamination with 3mm, friction coefficient 0.31.
Brut UWKD 191800Z 30003MPS 2000 SN BKN021 M06/M08 Q1013 R29/490331 NOSIG RMK QFE749/0998

LIFR

-6°C / -7°C

[Plus]
Vent 300º 8kt
Visibilité 1200m. Runway 29: Visual range is 1900m.
Météo Snow 3.00mm precipitation
Nuages Vertical Visibility of 0ft.
Pression 1013
Changement No Significant change. Runway 29: Dry snow, 51-100% contamination with 3mm, friction coefficient 0.31.
Brut UWKD 191730Z 30004MPS 1200 1100SE R29/1900N SN BKN012 M06/M07 Q1013 R29/490331 NOSIG RMK QFE749/0998

IFR

-6°C / -7°C

[Plus]
Vent 300º 8kt
Visibilité 2400m
Météo Light Snow 1.00mm precipitation
Nuages Vertical Visibility of 0ft.
Pression 1013
Changement No Significant change. Runway 29: Dry snow, 51-100% contamination with 3mm, friction coefficient 0.31.
Brut UWKD 191700Z 30004MPS 2400 -SN BKN005 M06/M07 Q1013 R29/490331 NOSIG RMK QFE748/0998

LIFR

-6°C / -7°C

[Plus]
Vent 300º 8kt
Visibilité 1500m. Runway 29: Visual range is 2000m and decreasing.
Météo Snow 3.00mm precipitation
Nuages Vertical Visibility of 0ft.
Pression 1012
Changement No Significant change. Runway 29: Dry snow, 51-100% contamination with 3mm, friction coefficient 0.31.
Brut UWKD 191630Z 30004MPS 1500 1300SW R29/P2000D SN BKN023 M06/M07 Q1012 R29/490331 NOSIG RMK QFE748/0998

IFR

-5°C / -7°C

[Plus]
Vent 290º 8kt
Visibilité 1800m
Météo Snow 3.00mm precipitation
Nuages Vertical Visibility of 0ft.
Pression 1012
Changement No Significant change. Runway 29: Dry snow, 51-100% contamination with 1mm, friction coefficient 0.33.
Brut UWKD 191600Z 29004MPS 1800 1300W SN BKN016 M05/M07 Q1012 R29/490133 NOSIG RMK QFE748/0998

IFR

-5°C / -7°C

[Plus]
Vent 290º 8kt
Visibilité 1900m
Météo Snow 3.00mm precipitation
Nuages Vertical Visibility of 0ft.
Pression 1012
Changement No Significant change. Runway 29: Dry snow, 51-100% contamination with 1mm, friction coefficient 0.33.
Brut UWKD 191530Z 29004MPS 1900 SN BKN016 M05/M07 Q1012 R29/490133 NOSIG RMK QFE748/0997

IFR

-5°C / -6°C

[Plus]
Vent 310º 6kt
Visibilité 2100m
Météo Light Snow 1.00mm precipitation
Nuages Vertical Visibility of 0ft.
Pression 1012
Changement No Significant change. Runway 29: Dry snow, 51-100% contamination with 1mm, friction coefficient 0.33.
Brut UWKD 191500Z 31003MPS 2100 -SN BKN020 M05/M06 Q1012 R29/490133 NOSIG RMK QFE748/0997

IFR

-5°C / -6°C

[Plus]
Vent 300º 8kt
Visibilité 2000m. Runway 29: Visual range is 2000m.
Météo Snow 3.00mm precipitation
Nuages Vertical Visibility of 0ft.
Pression 1012
Changement No Significant change. Runway 29: Dry snow, 51-100% contamination with 1mm, friction coefficient 0.33.
Brut UWKD 191430Z 30004MPS 2000 R29/P2000N SN BKN022 M05/M06 Q1012 R29/490133 NOSIG RMK QFE748/0997

TAF pour 55.61°N 49.28°E (UWKD)

From till


Maximum Temperature -6ºC on . Minimum Temperature -10ºC on .
From till Wind 230º 6kt. Visibility 10km or more. Overcast 1300ft.
Temporarly from till Light Snow . Scattered Clouds 600ft.
Becoming from till Wind 190º 14kt. Visibility 10km or more. Overcast 1300ft.

Brut: TAF UWKD 192300Z 2000/2024 23003MPS 9999 OVC013 TXM06/2011Z TNM10/2003Z TEMPO 2000/2006 -SN SCT006 BECMG 2006/2008 19007MPS

Radar et prévision de précipitation à court terme pour 55.61°N 49.28°E

Bruine
Légère
Modéré
Fort
Très fort
Grêle

Le marqueur est placé sur 55.61°N 49.28°E. Cette animation montre le Radar des précipitations pour les dernières heures, ainsi qu'une 1h prévision. La bruine ou les légères chutes de neiges peuvent ne pas être détectées par le radar. L'intensité des précipitations est visible avec un code couleur allant du bleu clair au violet foncé et orange.

Les images satellites et les pluies actuelles pour 55.61°N 49.28°E

Le marqueur est placé sur 55.61°N 49.28°E. [Plus]

L'image satellite en temps réel combine la lumière visible pendant la journée et le rayonnement infrarouge pendant la nuit. La nuit, l'image n'est pas sombre car le rayonnement infrarouge permet de détecter les différences de température. Malheureusement, les nuages bas et le brouillard sont difficiles à distinguer des températures au sol et peuvent donc être presque invisibles pendant la nuit. Les images des satellites Météosat pour l'Europe sont mises à jour en temps réel toutes les 5 minutes. Les images GOES-16/GOES-17 (Amérique du Nord et du Sud) et Himawari (Asie) sont mises à jour toutes les 10 minutes.

Copyright 2022 EUMETSAT / meteoblue. / Copyright 2022 meteoblue